Time;durP1;ratioP1;P1;durP2;ratioP2;P2;SDS_P1;SDS_P2;PMS_P1;PMS_P2;Temp;Humidity;BMP_temperature;BMP_pressure;BME280_temperature;BME280_humidity;BME280_pressure;Samples;Min_cycle;Max_cycle;Signal;HPM_P1;HPM_P2
2022/05/17 00:00:38;;;;;;;12.40;3.30;;;;;;;14.93;45.34;98022.84;106161;1274;22687;-84
2022/05/17 00:03:06;;;;;;;14.30;3.60;;;;;;;14.92;45.26;98025.54;106289;1275;23225;-84
2022/05/17 00:05:34;;;;;;;8.70;3.50;;;;;;;14.92;45.27;98029.10;106196;1275;22545;-84
2022/05/17 00:08:02;;;;;;;10.30;3.00;;;;;;;14.91;45.38;98030.84;106008;1275;22548;-81
2022/05/17 00:10:30;;;;;;;6.30;3.40;;;;;;;14.90;45.36;98028.30;106023;1274;24429;-82
2022/05/17 00:12:58;;;;;;;12.80;3.00;;;;;;;14.89;45.16;98030.30;106258;1273;22559;-81
2022/05/17 00:15:26;;;;;;;13.50;3.20;;;;;;;14.88;45.25;98032.83;106337;1274;24206;-82
2022/05/17 00:17:54;;;;;;;8.10;3.30;;;;;;;14.86;45.29;98028.01;106328;1273;22483;-79
2022/05/17 00:20:24;;;;;;;9.30;3.40;;;;;;;14.85;45.44;98026.77;106878;1273;22864;-80
2022/05/17 00:22:52;;;;;;;7.70;3.70;;;;;;;14.81;45.60;98022.21;106295;1273;24126;-86
2022/05/17 00:25:23;;;;;;;6.90;3.30;;;;;;;14.80;45.64;98018.36;106136;1273;24448;-87
2022/05/17 00:27:52;;;;;;;10.00;3.40;;;;;;;14.79;45.66;98016.77;106505;1273;24731;-83
2022/05/17 00:30:20;;;;;;;6.80;3.20;;;;;;;14.76;45.79;98012.63;106047;1274;22614;-83
2022/05/17 00:32:48;;;;;;;6.90;3.40;;;;;;;14.73;45.70;98011.95;106067;1273;22684;-84
2022/05/17 00:35:16;;;;;;;8.60;4.10;;;;;;;14.71;45.95;98011.49;105893;1276;24206;-82
2022/05/17 00:37:45;;;;;;;6.80;3.30;;;;;;;14.70;46.05;98012.50;106103;1274;22553;-82
2022/05/17 00:40:15;;;;;;;8.30;3.40;;;;;;;14.69;46.07;98008.75;106051;1273;22579;-82
2022/05/17 00:42:43;;;;;;;12.10;3.30;;;;;;;14.68;46.47;98007.79;106047;1273;24122;-84
2022/05/17 00:45:11;;;;;;;6.70;3.20;;;;;;;14.68;46.76;98008.39;106125;1273;23455;-83
2022/05/17 00:48:04;;;;;;;9.90;3.60;;;;;;;14.67;46.81;98005.27;105993;1274;23948;-82
2022/05/17 00:50:38;;;;;;;8.60;3.30;;;;;;;14.68;46.55;98006.55;105980;1273;22701;-84
2022/05/17 00:53:17;;;;;;;8.60;3.80;;;;;;;14.69;46.73;98005.65;106001;1273;22695;-82
2022/05/17 00:56:10;;;;;;;8.20;3.70;;;;;;;14.70;46.88;98003.38;106038;1274;24231;-83
2022/05/17 00:58:44;;;;;;;9.10;3.30;;;;;;;14.71;46.95;97998.63;106075;1273;22618;-84
2022/05/17 01:01:25;;;;;;;6.80;3.80;;;;;;;14.72;46.90;97991.73;106016;1273;24231;-85
2022/05/17 01:04:01;;;;;;;8.90;3.40;;;;;;;14.69;46.97;97985.03;106093;1273;22604;-83
2022/05/17 01:06:33;;;;;;;11.70;4.30;;;;;;;14.71;47.15;97990.64;105977;1273;22602;-84
2022/05/17 01:09:01;;;;;;;10.40;3.90;;;;;;;14.71;47.06;97989.73;106052;1274;22705;-83
2022/05/17 01:11:30;;;;;;;6.40;3.40;;;;;;;14.71;47.41;97989.16;106020;1274;24383;-83
2022/05/17 01:16:44;;;;;;;7.20;4.10;;;;;;;14.68;47.81;97982.98;105974;1274;25718;-84
2022/05/17 01:19:13;;;;;;;7.20;3.60;;;;;;;14.63;47.72;97976.06;106005;1274;22740;-85
2022/05/17 01:21:42;;;;;;;9.40;4.20;;;;;;;14.66;47.73;97975.99;105989;1274;23248;-84
2022/05/17 01:24:10;;;;;;;8.00;3.90;;;;;;;14.65;48.09;97973.35;105994;1274;22855;-84
2022/05/17 01:26:43;;;;;;;9.10;4.00;;;;;;;14.65;48.14;97971.49;105984;1274;24222;-85
2022/05/17 01:29:13;;;;;;;8.90;4.10;;;;;;;14.65;48.28;97968.77;105904;1275;23427;-85
2022/05/17 01:31:41;;;;;;;14.30;4.40;;;;;;;14.65;48.37;97964.67;106042;1275;24370;-84
2022/05/17 01:34:11;;;;;;;8.10;3.70;;;;;;;14.66;48.48;97959.05;105976;1274;22659;-84
2022/05/17 01:36:40;;;;;;;9.00;4.80;;;;;;;14.65;48.31;97961.57;105978;1275;24440;-81
2022/05/17 01:39:08;;;;;;;8.40;4.70;;;;;;;14.64;47.93;97964.54;106120;1274;23347;-84
2022/05/17 01:41:36;;;;;;;7.00;4.30;;;;;;;14.61;48.21;97960.84;106429;1274;24067;-82
2022/05/17 01:44:04;;;;;;;10.50;4.30;;;;;;;14.59;48.22;97961.36;106050;1274;22543;-84
2022/05/17 01:46:32;;;;;;;7.90;4.30;;;;;;;14.56;48.19;97960.64;106089;1274;22539;-86
2022/05/17 01:49:00;;;;;;;10.70;4.10;;;;;;;14.52;48.01;97961.17;105975;1273;22560;-88
2022/05/17 01:51:28;;;;;;;7.50;4.00;;;;;;;14.49;48.06;97959.15;106031;1274;22562;-84
2022/05/17 01:53:56;;;;;;;11.50;4.10;;;;;;;14.46;48.49;97957.15;106009;1274;25493;-82
2022/05/17 01:56:24;;;;;;;8.60;4.40;;;;;;;14.42;49.04;97956.59;106006;1274;26090;-84
2022/05/17 01:58:52;;;;;;;11.00;4.00;;;;;;;14.38;48.98;97956.27;106095;1274;25597;-84
2022/05/17 02:01:20;;;;;;;7.30;4.20;;;;;;;14.37;49.15;97964.27;106053;1274;25419;-80
2022/05/17 02:03:48;;;;;;;6.40;4.20;;;;;;;14.36;49.37;97965.46;106007;1274;23944;-82
2022/05/17 02:06:16;;;;;;;8.90;3.80;;;;;;;14.33;49.20;97967.44;106054;1275;25494;-83
2022/05/17 02:08:44;;;;;;;12.00;4.60;;;;;;;14.31;49.32;97966.04;106083;1274;25235;-84
2022/05/17 02:11:12;;;;;;;7.00;4.30;;;;;;;14.28;49.00;97963.27;106045;1274;23794;-83
2022/05/17 02:13:41;;;;;;;11.00;4.90;;;;;;;14.25;49.14;97957.13;106028;1274;25358;-83
2022/05/17 02:16:11;;;;;;;9.60;4.50;;;;;;;14.22;49.65;97952.02;106074;1273;22534;-82
2022/05/17 02:18:44;;;;;;;12.20;4.90;;;;;;;14.18;49.72;97951.61;106026;1274;25370;-84
2022/05/17 02:21:11;;;;;;;10.20;4.90;;;;;;;14.14;50.23;97952.60;105981;1274;24435;-83
2022/05/17 02:23:39;;;;;;;8.90;4.40;;;;;;;14.12;51.02;97950.25;106131;1273;22619;-82
2022/05/17 02:26:07;;;;;;;9.10;5.10;;;;;;;14.07;51.09;97953.02;106190;1273;24080;-84
2022/05/17 02:28:35;;;;;;;8.30;4.60;;;;;;;14.05;51.00;97951.37;106018;1274;22489;-84
2022/05/17 02:31:03;;;;;;;8.80;4.40;;;;;;;14.04;51.01;97946.58;106169;1274;22541;-83
2022/05/17 02:33:31;;;;;;;9.20;4.60;;;;;;;14.03;50.72;97946.08;106172;1273;22605;-83
2022/05/17 02:35:59;;;;;;;8.40;4.50;;;;;;;14.03;50.94;97944.45;106215;1274;24378;-83
2022/05/17 02:38:27;;;;;;;10.10;4.60;;;;;;;14.02;51.42;97935.81;106162;1274;22553;-82
2022/05/17 02:40:56;;;;;;;11.20;4.90;;;;;;;14.01;51.63;97942.55;106034;1274;22550;-83
2022/05/17 02:43:24;;;;;;;15.20;4.50;;;;;;;14.01;51.68;97940.52;106079;1273;24312;-82
2022/05/17 02:45:53;;;;;;;12.00;5.20;;;;;;;14.00;51.84;97934.83;105993;1274;23946;-82
2022/05/17 02:48:21;;;;;;;13.40;5.80;;;;;;;14.00;51.89;97934.09;105989;1274;25371;-84
2022/05/17 02:50:49;;;;;;;9.80;4.90;;;;;;;13.99;51.64;97932.37;105960;1273;25751;-84
2022/05/17 02:53:17;;;;;;;8.80;4.40;;;;;;;13.98;52.09;97935.05;105980;1274;25325;-84
2022/05/17 02:55:45;;;;;;;8.10;4.50;;;;;;;13.99;52.00;97938.62;105942;1274;25417;-83
2022/05/17 02:58:13;;;;;;;12.50;4.60;;;;;;;13.98;52.38;97938.98;106164;1273;24368;-84
2022/05/17 03:00:42;;;;;;;9.10;5.10;;;;;;;13.97;52.53;97939.81;106172;1274;22558;-84
2022/05/17 03:03:10;;;;;;;11.40;7.20;;;;;;;13.96;52.54;97939.04;106147;1274;23145;-84
2022/05/17 03:05:38;;;;;;;13.20;5.30;;;;;;;13.95;52.52;97942.33;105989;1275;24797;-83
2022/05/17 03:08:07;;;;;;;16.20;5.30;;;;;;;13.94;52.58;97947.17;105954;1274;22538;-83
2022/05/17 03:10:35;;;;;;;8.20;4.70;;;;;;;13.94;52.54;97950.75;105938;1274;22575;-82
2022/05/17 03:13:03;;;;;;;9.50;4.70;;;;;;;13.95;53.01;97951.64;105954;1275;24339;-85
2022/05/17 03:15:31;;;;;;;11.50;5.20;;;;;;;13.96;52.98;97954.75;106193;1274;22896;-85
2022/05/17 03:17:58;;;;;;;11.90;4.90;;;;;;;13.93;53.05;97950.23;105984;1274;24212;-85
2022/05/17 03:20:26;;;;;;;12.00;5.40;;;;;;;13.97;53.02;97954.25;105919;1274;22758;-84
2022/05/17 03:22:54;;;;;;;11.60;5.70;;;;;;;13.98;53.07;97953.52;106131;1274;22611;-86
2022/05/17 03:25:23;;;;;;;11.50;5.50;;;;;;;13.98;53.52;97950.84;106975;1274;22870;-85
2022/05/17 03:28:01;;;;;;;10.30;5.00;;;;;;;13.99;53.53;97948.06;105970;1273;22753;-84
2022/05/17 03:30:30;;;;;;;13.60;5.90;;;;;;;13.99;53.54;97950.95;105991;1274;22542;-87
2022/05/17 03:32:58;;;;;;;11.70;5.30;;;;;;;14.00;53.43;97953.21;105924;1274;25446;-83
2022/05/17 03:35:32;;;;;;;12.10;5.30;;;;;;;14.00;53.34;97958.11;105933;1274;22634;-84
2022/05/17 03:38:01;;;;;;;10.70;4.90;;;;;;;14.00;53.41;97959.41;106007;1274;22704;-83
2022/05/17 03:40:29;;;;;;;7.70;4.70;;;;;;;14.01;53.55;97957.59;105962;1273;24218;-85
2022/05/17 03:42:57;;;;;;;8.20;5.10;;;;;;;14.01;53.40;97965.98;105928;1272;22665;-84
2022/05/17 03:45:25;;;;;;;8.40;4.50;;;;;;;14.01;52.92;97962.88;106203;1274;22597;-81
2022/05/17 03:47:53;;;;;;;6.70;4.90;;;;;;;14.04;53.06;97967.59;105941;1274;24281;-83
2022/05/17 03:50:21;;;;;;;7.70;4.60;;;;;;;14.07;53.43;97968.55;105913;1273;24265;-83
2022/05/17 03:52:48;;;;;;;8.10;5.00;;;;;;;14.06;53.78;97969.92;105901;1274;22581;-83
2022/05/17 03:55:16;;;;;;;8.70;4.70;;;;;;;14.06;53.80;97971.71;105945;1274;24219;-83
2022/05/17 03:57:45;;;;;;;6.60;4.70;;;;;;;14.07;53.44;97971.45;105951;1273;22685;-82
2022/05/17 04:00:13;;;;;;;9.30;5.00;;;;;;;14.10;54.02;97974.89;105966;1273;22538;-83
2022/05/17 04:02:43;;;;;;;7.70;4.90;;;;;;;14.12;53.89;97976.14;105918;1274;23001;-83
2022/05/17 04:05:11;;;;;;;7.60;4.90;;;;;;;14.15;53.85;97982.50;105956;1273;22576;-83
2022/05/17 04:07:39;;;;;;;8.90;5.20;;;;;;;14.16;54.02;97976.35;106031;1273;24291;-82
2022/05/17 04:10:11;;;;;;;13.90;5.30;;;;;;;14.17;53.74;97975.32;105900;1274;24139;-83
2022/05/17 04:12:39;;;;;;;8.60;4.80;;;;;;;14.18;53.77;97977.20;105970;1273;24431;-83
2022/05/17 04:15:10;;;;;;;12.20;5.50;;;;;;;14.20;53.76;97979.50;105938;1273;25270;-84
2022/05/17 04:17:39;;;;;;;7.60;5.00;;;;;;;14.22;53.75;97977.59;105963;1274;22538;-82
2022/05/17 04:20:15;;;;;;;8.30;4.40;;;;;;;14.25;53.64;97977.30;105947;1274;22554;-84
2022/05/17 04:22:46;;;;;;;8.90;5.00;;;;;;;14.28;53.88;97979.21;106183;1273;22662;-84
2022/05/17 04:25:17;;;;;;;9.10;4.90;;;;;;;14.31;53.97;97986.19;105975;1273;22617;-84
2022/05/17 04:27:46;;;;;;;12.40;5.30;;;;;;;14.38;53.92;97987.95;105959;1273;22612;-82
2022/05/17 04:30:14;;;;;;;10.10;5.10;;;;;;;14.43;53.85;97987.10;105940;1274;22543;-87
2022/05/17 04:32:47;;;;;;;9.50;5.30;;;;;;;14.48;53.90;97986.73;105969;1274;22702;-83
2022/05/17 04:35:17;;;;;;;11.60;5.30;;;;;;;14.51;53.85;97986.59;106138;1274;22693;-82
2022/05/17 04:37:49;;;;;;;;;;;;;;;14.58;53.75;97988.66;106208;1273;22537;-87
2022/05/17 04:40:17;;;;;;;8.30;5.00;;;;;;;14.63;53.85;97987.80;105992;1273;25425;-87
2022/05/17 04:42:47;;;;;;;8.70;4.80;;;;;;;14.68;53.92;97990.11;106075;1273;24331;-87
2022/05/17 04:45:17;;;;;;;11.30;5.30;;;;;;;14.70;54.03;97988.09;106015;1273;22550;-87
2022/05/17 04:47:46;;;;;;;8.90;4.50;;;;;;;14.71;53.96;97993.73;106041;1273;25334;-87
2022/05/17 04:50:17;;;;;;;9.70;4.80;;;;;;;14.74;54.07;97993.98;106109;1273;25343;-85
2022/05/17 04:52:47;;;;;;;7.70;4.70;;;;;;;14.76;54.01;97994.30;106041;1273;24416;-87
2022/05/17 04:55:18;;;;;;;9.50;5.30;;;;;;;14.77;54.14;97997.55;105990;1273;22563;-84
2022/05/17 04:57:46;;;;;;;10.00;5.40;;;;;;;14.80;54.04;97999.36;106014;1273;22633;-85
2022/05/17 05:00:20;;;;;;;17.30;5.90;;;;;;;14.84;54.11;97998.84;105995;1273;24294;-87
2022/05/17 05:02:48;;;;;;;;;;;;;;;14.87;53.97;97997.75;106025;1273;22556;-85
2022/05/17 05:05:21;;;;;;;9.20;5.10;;;;;;;14.91;53.77;97997.73;106156;1273;24230;-87
2022/05/17 05:07:52;;;;;;;8.70;4.70;;;;;;;14.95;53.89;97999.38;107034;1273;25352;-86
2022/05/17 05:10:21;;;;;;;8.20;5.10;;;;;;;15.01;53.97;98005.33;106147;1271;22552;-88
2022/05/17 05:12:49;;;;;;;10.00;5.30;;;;;;;15.06;53.83;98005.92;106099;1273;23542;-87
2022/05/17 05:15:17;;;;;;;14.60;6.10;;;;;;;15.14;53.87;98007.80;106107;1273;23941;-88
2022/05/17 05:17:45;;;;;;;10.20;5.00;;;;;;;15.21;53.73;98005.48;106089;1272;22722;-87
2022/05/17 05:20:16;;;;;;;11.00;4.90;;;;;;;15.26;53.67;98004.35;106036;1273;22529;-89
2022/05/17 05:22:44;;;;;;;7.00;4.40;;;;;;;15.26;53.47;98001.23;106032;1273;23561;-87
2022/05/17 05:25:13;;;;;;;7.40;4.50;;;;;;;15.26;53.51;98002.57;106027;1273;22551;-85
2022/05/17 05:27:43;;;;;;;8.50;4.50;;;;;;;15.29;53.59;98005.72;106044;1273;23133;-88
2022/05/17 05:30:14;;;;;;;9.00;4.60;;;;;;;15.31;53.51;98008.42;106018;1273;22555;-87
2022/05/17 05:32:42;;;;;;;8.50;4.80;;;;;;;15.36;53.54;98005.69;106142;1273;22563;-87
2022/05/17 05:35:10;;;;;;;9.80;5.00;;;;;;;15.38;53.30;98012.23;106025;1273;25241;-86
2022/05/17 05:37:38;;;;;;;9.50;4.60;;;;;;;15.43;53.36;98004.64;106055;1273;22559;-87
2022/05/17 05:40:08;;;;;;;11.80;5.00;;;;;;;15.46;53.48;98004.20;106010;1273;24259;-87
2022/05/17 05:42:38;;;;;;;10.80;5.00;;;;;;;15.49;53.47;98003.54;105999;1273;22545;-87
2022/05/17 05:45:08;;;;;;;9.00;4.80;;;;;;;15.50;53.32;98002.65;106067;1273;23335;-89
2022/05/17 05:47:36;;;;;;;8.00;4.90;;;;;;;15.52;53.47;97998.86;106039;1273;25287;-87
2022/05/17 05:50:05;;;;;;;10.00;4.90;;;;;;;15.53;53.48;97996.10;105988;1273;22564;-86
2022/05/17 05:52:34;;;;;;;11.10;5.10;;;;;;;15.58;53.49;97992.02;106041;1274;22752;-85
2022/05/17 05:55:03;;;;;;;7.60;5.10;;;;;;;15.63;53.48;97993.39;106021;1272;25408;-86
2022/05/17 05:57:31;;;;;;;11.80;5.00;;;;;;;15.67;53.38;97996.65;106006;1273;22563;-85
2022/05/17 05:59:59;;;;;;;7.40;5.30;;;;;;;15.70;53.32;97993.77;106009;1273;23974;-87
2022/05/17 06:02:27;;;;;;;9.40;5.20;;;;;;;15.75;53.23;98001.09;106088;1273;22758;-84
2022/05/17 06:04:54;;;;;;;10.20;4.90;;;;;;;15.78;53.23;98001.53;106008;1273;22733;-86
2022/05/17 06:07:22;;;;;;;9.00;4.60;;;;;;;15.84;53.25;98004.02;106054;1273;23763;-86
2022/05/17 06:09:50;;;;;;;8.90;4.60;;;;;;;15.87;53.16;98004.14;106275;1273;23937;-85
2022/05/17 06:12:18;;;;;;;11.70;4.90;;;;;;;15.88;53.11;98009.31;106248;1273;22979;-85
2022/05/17 06:14:46;;;;;;;9.90;5.20;;;;;;;15.88;53.15;98004.33;108853;1273;22542;-85
2022/05/17 06:17:14;;;;;;;11.60;5.30;;;;;;;15.89;53.16;98005.14;109378;1273;22639;-83
2022/05/17 06:19:42;;;;;;;6.80;4.80;;;;;;;15.92;53.22;98007.77;107924;1273;23038;-84
2022/05/17 06:22:11;;;;;;;13.10;5.80;;;;;;;15.96;53.21;98010.05;107093;1273;22533;-86
2022/05/17 06:24:39;;;;;;;11.20;4.80;;;;;;;16.02;53.15;98011.76;106514;1273;24158;-87
2022/05/17 06:27:07;;;;;;;10.00;5.00;;;;;;;16.08;53.07;98010.25;106343;1273;22688;-88
2022/05/17 06:29:35;;;;;;;9.00;4.30;;;;;;;16.14;53.08;98006.65;106611;1272;24228;-84
2022/05/17 06:32:03;;;;;;;8.80;4.80;;;;;;;16.18;53.00;98002.39;106109;1273;22550;-86
2022/05/17 06:34:31;;;;;;;11.90;4.50;;;;;;;16.25;53.04;98004.51;106187;1273;22562;-85
2022/05/17 06:36:59;;;;;;;7.20;4.70;;;;;;;16.37;53.03;98008.73;105989;1273;24422;-85
2022/05/17 06:39:27;;;;;;;13.20;4.50;;;;;;;16.49;53.10;98010.40;106113;1273;22569;-85
2022/05/17 06:41:55;;;;;;;9.90;5.00;;;;;;;16.62;52.98;98013.02;106274;1273;22669;-83
2022/05/17 06:44:23;;;;;;;9.60;4.80;;;;;;;16.72;52.96;98009.89;106490;1274;22714;-88
2022/05/17 06:46:52;;;;;;;11.30;4.40;;;;;;;16.78;52.78;98007.35;106495;1273;24285;-85
2022/05/17 06:49:21;;;;;;;11.00;4.40;;;;;;;16.84;52.74;98004.02;106363;1273;22709;-85
2022/05/17 06:51:49;;;;;;;7.30;4.50;;;;;;;16.97;52.75;98012.23;106576;1273;22554;-84
2022/05/17 06:54:18;;;;;;;9.30;4.60;;;;;;;17.06;52.43;98013.64;106038;1273;22740;-87
2022/05/17 06:56:46;;;;;;;11.50;4.70;;;;;;;17.12;52.24;98016.08;106029;1273;23184;-85
2022/05/17 06:59:14;;;;;;;9.80;4.80;;;;;;;17.16;52.09;98008.45;106212;1273;24073;-86
2022/05/17 07:01:43;;;;;;;10.90;5.20;;;;;;;17.20;51.84;98009.52;106028;1273;22548;-86
2022/05/17 07:04:13;;;;;;;7.20;4.20;;;;;;;17.26;51.67;98002.70;106240;1273;25421;-86
2022/05/17 07:06:41;;;;;;;8.70;4.60;;;;;;;17.28;51.30;97998.84;107427;1273;22530;-85
2022/05/17 07:09:12;;;;;;;7.20;4.60;;;;;;;17.25;51.13;98001.35;108272;1273;22594;-85
2022/05/17 07:14:28;;;;;;;9.90;4.50;;;;;;;17.41;51.33;98007.46;106028;1273;25357;-86
2022/05/17 07:16:56;;;;;;;11.50;4.30;;;;;;;17.58;51.19;98008.84;105982;1273;22537;-85
2022/05/17 07:19:24;;;;;;;7.90;4.60;;;;;;;17.77;50.98;98011.11;106252;1273;25146;-86
2022/05/17 07:22:02;;;;;;;8.00;4.40;;;;;;;17.88;50.70;98008.93;106280;1273;23062;-84
2022/05/17 07:24:31;;;;;;;8.60;4.80;;;;;;;17.97;50.49;98006.99;105992;1273;25407;-85
2022/05/17 07:26:59;;;;;;;11.30;5.10;;;;;;;18.09;50.47;98007.45;106023;1273;23790;-86
2022/05/17 07:29:48;;;;;;;9.80;4.20;;;;;;;18.27;49.72;98003.17;106083;1273;24153;-87
2022/05/17 07:32:17;;;;;;;10.00;4.60;;;;;;;18.34;48.45;97997.00;105976;1272;22616;-88
2022/05/17 07:34:46;;;;;;;8.30;4.10;;;;;;;18.41;48.21;97995.16;106005;1273;22559;-87
2022/05/17 07:37:15;;;;;;;6.70;4.00;;;;;;;18.51;47.93;97997.61;106024;1273;23163;-88
2022/05/17 07:39:43;;;;;;;11.50;3.90;;;;;;;18.58;47.87;97995.92;106171;1273;22537;-88
2022/05/17 07:42:11;;;;;;;10.40;4.10;;;;;;;18.64;47.54;97997.89;106053;1273;24527;-85
2022/05/17 07:44:39;;;;;;;9.60;3.80;;;;;;;18.66;47.38;97994.98;106046;1273;22626;-85
2022/05/17 07:47:11;;;;;;;10.50;4.90;;;;;;;18.69;47.03;97996.23;106100;1273;22824;-87
2022/05/17 07:49:42;;;;;;;11.70;4.80;;;;;;;18.70;47.06;97999.77;106012;1273;24277;-84
2022/05/17 07:52:11;;;;;;;8.10;4.50;;;;;;;18.68;46.26;98002.98;106015;1273;22814;-86
2022/05/17 07:54:41;;;;;;;8.50;3.90;;;;;;;18.64;46.32;98003.34;105981;1273;22573;-87
2022/05/17 07:57:09;;;;;;;10.70;4.60;;;;;;;18.61;46.28;98001.00;105982;1273;24416;-87
2022/05/17 07:59:37;;;;;;;13.50;4.60;;;;;;;18.65;46.45;98001.58;105955;1273;24254;-86
2022/05/17 08:02:06;;;;;;;9.40;4.20;;;;;;;18.71;46.42;98000.02;106249;1273;24832;-85
2022/05/17 08:04:34;;;;;;;9.10;4.60;;;;;;;18.78;46.73;98002.91;106285;1273;22598;-86
2022/05/17 08:07:02;;;;;;;13.80;4.70;;;;;;;18.92;46.50;98001.52;106042;1273;22550;-87
2022/05/17 08:09:35;;;;;;;10.60;4.00;;;;;;;19.02;46.20;97999.77;106036;1273;22603;-86
2022/05/17 08:12:07;;;;;;;10.90;4.00;;;;;;;19.07;46.01;98002.14;106024;1273;23975;-86
2022/05/17 08:14:36;;;;;;;11.10;3.80;;;;;;;19.09;45.69;98000.95;106031;1273;24292;-86
2022/05/17 08:17:06;;;;;;;9.60;4.00;;;;;;;19.10;45.55;97995.13;106339;1273;25950;-87
2022/05/17 08:19:36;;;;;;;8.20;3.70;;;;;;;19.14;45.67;97993.50;106304;1273;24295;-87
2022/05/17 08:22:10;;;;;;;10.20;3.70;;;;;;;19.17;45.37;97997.26;106480;1273;22540;-85
2022/05/17 08:27:40;;;;;;;9.20;3.90;;;;;;;19.16;45.74;98004.55;106414;1273;25467;-84
2022/05/17 08:30:09;;;;;;;;;;;;;;;19.25;45.71;98010.48;106314;1273;23141;-85
2022/05/17 08:35:42;;;;;;;10.10;4.20;;;;;;;19.36;45.42;98011.98;106715;1273;22694;-84
2022/05/17 08:38:13;;;;;;;8.20;3.80;;;;;;;19.48;45.76;98016.09;106244;1272;23959;-85
2022/05/17 08:40:53;;;;;;;8.00;4.00;;;;;;;19.67;45.78;98018.60;106282;1273;22552;-86
2022/05/17 08:43:28;;;;;;;6.40;3.60;;;;;;;19.85;45.37;98017.45;106293;1273;25302;-84
2022/05/17 08:46:01;;;;;;;7.50;3.60;;;;;;;19.90;44.68;98018.48;106285;1272;24288;-85
2022/05/17 08:48:36;;;;;;;8.20;3.90;;;;;;;19.89;44.78;98021.44;106261;1273;22652;-85
2022/05/17 08:51:05;;;;;;;7.50;3.50;;;;;;;19.95;44.48;98026.73;106242;1273;23375;-86
2022/05/17 08:53:33;;;;;;;12.20;4.50;;;;;;;19.96;44.42;98027.83;106031;1273;22772;-86
2022/05/17 08:56:01;;;;;;;9.50;3.40;;;;;;;19.97;44.25;98028.08;105937;1274;22625;-88
2022/05/17 08:58:32;;;;;;;12.40;3.70;;;;;;;20.01;44.26;98026.45;106049;1273;25383;-89
2022/05/17 09:01:06;;;;;;;9.40;3.70;;;;;;;20.08;44.33;98023.81;106299;1273;22492;-87
2022/05/17 09:03:49;;;;;;;7.50;3.50;;;;;;;20.15;44.30;98025.91;106056;1273;22550;-82
2022/05/17 09:06:59;;;;;;;8.80;4.00;;;;;;;20.22;43.88;98026.20;106002;1273;22550;-87
2022/05/17 09:09:48;;;;;;;8.70;3.80;;;;;;;20.23;43.46;98026.14;105977;1273;23397;-83
2022/05/17 09:12:38;;;;;;;10.70;3.40;;;;;;;20.23;43.35;98026.29;105934;1273;24081;-85
2022/05/17 09:15:07;;;;;;;12.80;3.70;;;;;;;20.22;43.15;98028.31;106272;1273;25247;-87
2022/05/17 09:17:35;;;;;;;10.80;4.00;;;;;;;20.25;43.30;98028.14;106236;1272;22557;-85
2022/05/17 09:20:05;;;;;;;8.50;3.50;;;;;;;20.38;43.24;98027.95;106283;1273;24101;-85
2022/05/17 09:22:32;;;;;;;9.00;3.70;;;;;;;20.48;43.26;98026.81;106196;1273;24084;-85
2022/05/17 09:25:13;;;;;;;6.90;3.70;;;;;;;20.56;42.81;98025.59;106239;1273;24219;-84
2022/05/17 09:27:41;;;;;;;11.00;3.90;;;;;;;20.56;42.67;98027.77;106163;1273;24243;-86
2022/05/17 09:30:27;;;;;;;8.50;3.40;;;;;;;20.56;42.31;98027.38;106349;1273;22555;-87
2022/05/17 09:33:06;;;;;;;7.50;3.40;;;;;;;20.59;42.66;98024.88;106335;1273;22752;-85
2022/05/17 09:35:57;;;;;;;7.70;3.80;;;;;;;20.68;42.51;98028.39;105988;1273;25270;-83
2022/05/17 09:38:32;;;;;;;8.50;3.50;;;;;;;20.74;42.24;98026.09;106195;1273;22549;-85
2022/05/17 09:41:00;;;;;;;5.00;3.00;;;;;;;20.71;42.13;98027.05;106233;1273;22590;-84
2022/05/17 09:43:50;;;;;;;10.50;3.40;;;;;;;20.71;42.15;98025.70;105791;1273;24232;-85
2022/05/17 09:46:30;;;;;;;7.90;3.30;;;;;;;20.78;42.52;98025.13;105942;1273;22551;-84
2022/05/17 09:54:48;;;;;;;11.10;4.60;;;;;;;21.06;41.79;98018.67;106379;1273;25369;-80
2022/05/17 09:57:17;;;;;;;10.90;4.80;;;;;;;21.14;41.98;98019.77;106035;1273;25504;-85
2022/05/17 09:59:47;;;;;;;11.00;3.70;;;;;;;21.33;42.06;98016.25;106176;1273;22620;-84
2022/05/17 10:02:32;;;;;;;10.10;4.40;;;;;;;21.61;41.98;98017.33;106523;1273;25766;-84
2022/05/17 10:05:18;;;;;;;8.20;3.70;;;;;;;21.75;41.51;98014.40;106566;1273;22546;-83
2022/05/17 10:08:00;;;;;;;7.50;3.90;;;;;;;21.87;41.29;98012.77;106634;1273;22762;-85
2022/05/17 10:10:51;;;;;;;9.20;4.50;;;;;;;22.03;41.46;98014.64;106063;1273;22782;-85
2022/05/17 10:13:25;;;;;;;8.40;4.00;;;;;;;22.21;41.26;98004.00;106006;1273;22564;-84
2022/05/17 10:16:00;;;;;;;6.80;3.60;;;;;;;22.31;40.85;98007.96;106303;1273;22580;-85
2022/05/17 10:18:38;;;;;;;9.40;3.80;;;;;;;22.35;41.04;98008.23;106403;1273;22751;-85
2022/05/17 10:21:15;;;;;;;6.80;3.20;;;;;;;22.39;40.99;98006.10;106698;1273;336704;-86
2022/05/17 10:23:55;;;;;;;6.10;3.10;;;;;;;22.46;41.25;98004.84;108290;1273;22552;-84
2022/05/17 10:26:32;;;;;;;9.60;4.00;;;;;;;22.52;41.15;97999.83;106216;1273;22578;-84
2022/05/17 10:29:09;;;;;;;9.70;3.90;;;;;;;22.60;40.91;98002.17;106588;1273;22728;-82
2022/05/17 10:31:44;;;;;;;7.30;3.20;;;;;;;22.64;40.65;97997.59;106510;1273;22743;-85
2022/05/17 10:34:30;;;;;;;11.10;3.30;;;;;;;22.74;39.70;97999.73;106222;1273;22681;-86
2022/05/17 10:37:14;;;;;;;7.50;3.10;;;;;;;22.64;40.01;98002.08;106497;1273;22643;-83
2022/05/17 10:39:58;;;;;;;4.90;2.80;;;;;;;22.66;39.71;98003.49;106538;1273;22699;-85
2022/05/17 10:42:28;;;;;;;7.60;3.60;;;;;;;22.72;39.43;98005.44;106187;1273;22746;-85
2022/05/17 10:44:58;;;;;;;9.80;3.50;;;;;;;22.66;39.77;97995.73;106499;1273;24424;-85
2022/05/17 10:47:47;;;;;;;7.40;3.50;;;;;;;22.75;39.28;97999.42;106681;1273;23110;-85
2022/05/17 10:51:01;;;;;;;10.80;3.30;;;;;;;22.79;39.10;98002.14;106634;1273;22545;-84
2022/05/17 10:53:41;;;;;;;8.80;2.80;;;;;;;22.84;38.32;98003.61;106022;1273;22537;-85
2022/05/17 10:56:32;;;;;;;16.40;3.40;;;;;;;22.80;38.67;98006.55;106157;1273;24227;-84
2022/05/17 10:59:29;;;;;;;7.30;3.00;;;;;;;22.97;39.06;98004.53;106105;1273;26692;-85
2022/05/17 11:02:27;;;;;;;7.00;3.10;;;;;;;23.20;38.86;98000.02;106555;1273;22564;-86
2022/05/17 11:05:17;;;;;;;6.90;3.60;;;;;;;23.36;38.73;97996.94;106555;1273;22553;-83
2022/05/17 11:08:10;;;;;;;7.50;3.20;;;;;;;23.34;37.40;97995.99;106625;1273;22551;-83
2022/05/17 11:11:00;;;;;;;9.70;3.20;;;;;;;23.30;37.64;97994.31;106621;1273;22688;-87
2022/05/17 11:13:37;;;;;;;6.00;2.70;;;;;;;23.35;37.50;97997.18;106611;1273;24296;-86
2022/05/17 11:16:19;;;;;;;4.90;2.70;;;;;;;23.45;37.30;97993.77;106469;1273;26722;-85
2022/05/17 11:19:06;;;;;;;6.20;2.30;;;;;;;23.47;37.17;97991.45;106375;1273;22564;-85
2022/05/17 11:21:48;;;;;;;10.40;3.20;;;;;;;23.43;36.76;97994.25;106367;1274;25371;-87
2022/05/17 11:24:41;;;;;;;6.80;3.20;;;;;;;23.46;36.93;97998.67;106316;1273;24252;-87
2022/05/17 11:27:31;;;;;;;6.00;3.40;;;;;;;23.46;37.04;97998.52;106302;1273;22538;-88
2022/05/17 11:30:20;;;;;;;7.40;3.50;;;;;;;23.37;36.93;98004.96;106302;1273;24250;-88
2022/05/17 11:33:23;;;;;;;9.50;4.40;;;;;;;23.34;36.88;98005.02;106048;1273;22561;-87
2022/05/17 11:35:54;;;;;;;7.40;3.40;;;;;;;23.09;36.41;98005.05;106242;1273;22750;-88
2022/05/17 11:38:37;;;;;;;9.00;2.90;;;;;;;22.96;36.39;98004.28;105977;1273;22736;-88
2022/05/17 11:41:16;;;;;;;8.90;3.50;;;;;;;22.86;36.58;98004.25;106943;1273;22553;-87
2022/05/17 11:43:49;;;;;;;8.10;3.10;;;;;;;22.70;36.56;98012.88;106805;1273;24254;-87
2022/05/17 11:46:29;;;;;;;10.30;4.30;;;;;;;22.57;36.68;98015.33;106947;1273;22568;-90
2022/05/17 11:49:18;;;;;;;7.00;4.00;;;;;;;22.47;36.90;98017.02;106237;1273;23295;-84
2022/05/17 11:51:58;;;;;;;4.20;2.50;;;;;;;22.38;36.99;98014.39;106796;1273;22557;-84
2022/05/17 11:54:46;;;;;;;10.20;5.30;;;;;;;22.24;36.92;98016.74;106257;1273;24218;-84
2022/05/17 11:57:16;;;;;;;17.00;8.60;;;;;;;22.09;36.59;98019.57;106215;1273;22544;-80
2022/05/17 11:59:54;;;;;;;13.50;9.10;;;;;;;21.97;36.97;98024.35;106799;1273;24372;-81
2022/05/17 12:02:44;;;;;;;8.40;5.70;;;;;;;21.95;36.92;98030.27;106725;1273;22587;-79